Dades meteomassalio
Diari Summary for Noviembre 22, 2017 Units:  Metric    English   Both
« Previous Day
Next Day »
Diari Semanal Mensual Anual Personalitzat
  Maxima: Minima: Mijana:
Temperatura: -17.8 °C -19.9 °C -15.9 °C
Rosada: -17.8 °C -21.6 °C -19.9 °C
Humitat: Humidity % 33 % 62 %
Velocitat del vent: 0 km/h 0 km/h 2.3 km/h
Racha vent: 0 km/h - -
Vent:- - SSE
Pressio: 0 hPa 34462.7 hPa -
Pluja: 0 mm    
Historical Graphs
 
 
Tabular Data for Noviembre 22, 2017
Time Temperature Dew Point Pressure Wind Wind Speed Wind Gust Humidity Rainfall Rate (Hourly) solar Conditions
-17.8 °C -17.8 °C 0 hPa Calm     Humidity % 0 mm SolarRadiationWatts/m^2 W/m2 Conditions
00:04 -18.4 °C -20.9 °C 34669.3 hPa WSW 9 km/h 9 km/h 71 % 0 mm 0.0 W/m2 CLR
00:14 -18.4 °C -20.9 °C 34659.1 hPa Calm     71 % 0 mm 0.0 W/m2 CLR
00:24 -18.4 °C -20.8 °C 34659.1 hPa Calm     72 % 0 mm 0.0 W/m2 CLR
00:34 -18.4 °C -20.7 °C 34659.1 hPa WSW 9 km/h 9 km/h 73 % 0 mm 0.0 W/m2 CLR
00:39 -18.4 °C -20.7 °C 34659.1 hPa WSW 6 km/h 6 km/h 73 % 0 mm 0.0 W/m2 CLR
00:44 -18.7 °C -21.2 °C 34659.1 hPa Calm     72 % 0 mm 0.0 W/m2 CLR
00:49 -18.7 °C -21.2 °C 34659.1 hPa WSW 7.7 km/h 7.7 km/h 72 % 0 mm 0.0 W/m2 CLR
00:55 -19 °C -21.3 °C 34659.1 hPa WSW 10.3 km/h 10.3 km/h 73 % 0 mm 0.0 W/m2 CLR
01:00 -18.7 °C -21.2 °C 34645.6 hPa WSW 15 km/h 15 km/h 72 % 0 mm 0.0 W/m2 CLR
01:05 -18.4 °C -20.8 °C 34659.1 hPa WSW 9 km/h 9 km/h 72 % 0 mm 0.0 W/m2 CLR
01:10 -18.4 °C -20.8 °C 34645.6 hPa West 9 km/h 9 km/h 72 % 0 mm 0.0 W/m2 CLR
01:15 -18.7 °C -21.2 °C 34645.6 hPa West 9 km/h 9 km/h 72 % 0 mm 0.0 W/m2 CLR
01:20 -18.7 °C -21.2 °C 34645.6 hPa Calm     72 % 0 mm 0.0 W/m2 CLR
01:25 -19 °C -21.3 °C 34645.6 hPa West 10.3 km/h 10.3 km/h 73 % 0 mm 0.0 W/m2 CLR
01:30 -19 °C -21.3 °C 34645.6 hPa WSW 9 km/h 9 km/h 73 % 0 mm 0.0 W/m2 CLR
01:35 -19 °C -21.3 °C 34635.4 hPa West 9 km/h 9 km/h 73 % 0 mm 0.0 W/m2 CLR
01:45 -19.3 °C -21.6 °C 34635.4 hPa Calm     74 % 0 mm 0.0 W/m2 CLR
01:50 -19.3 °C -21.6 °C 34635.4 hPa Calm     74 % 0 mm 0.0 W/m2 CLR
01:55 -19.3 °C -21.6 °C 34635.4 hPa Calm     73 % 0 mm 0.0 W/m2 CLR
02:00 -19.3 °C -21.6 °C 34635.4 hPa Calm     73 % 0 mm 0.0 W/m2 CLR
02:05 -19 °C -21.2 °C 34635.4 hPa Calm     74 % 0 mm 0.0 W/m2 CLR
02:10 -19 °C -21.2 °C 34635.4 hPa West 3.1 km/h 3.4 km/h 75 % 0 mm 0.0 W/m2 CLR
02:15 -19 °C -21.2 °C 34635.4 hPa Calm     75 % 0 mm 0.0 W/m2 CLR
02:20 -19 °C -21.2 °C 34635.4 hPa Calm     75 % 0 mm 0.0 W/m2 CLR
02:25 -19 °C -21.2 °C 34635.4 hPa Calm     74 % 0 mm 0.0 W/m2 CLR
02:30 -19 °C -21.2 °C 34635.4 hPa Calm     75 % 0 mm 0.0 W/m2 CLR
02:35 -19 °C -21.2 °C 34635.4 hPa Calm     75 % 0 mm 0.0 W/m2 CLR
02:40 -19 °C -21.2 °C 34635.4 hPa Calm     75 % 0 mm 0.0 W/m2 CLR
02:45 -19 °C -21.2 °C 34625.2 hPa Calm     75 % 0 mm 0.0 W/m2 CLR
02:50 -19 °C -21.1 °C 34625.2 hPa Calm     76 % 0 mm 0.0 W/m2 CLR
02:55 -19 °C -21.1 °C 34625.2 hPa Calm     76 % 0 mm 0.0 W/m2 CLR
03:05 -19 °C -21.1 °C 34625.2 hPa Calm     76 % 0 mm 0.0 W/m2 CLR
03:10 -19 °C -21.1 °C 34625.2 hPa Calm     76 % 0 mm 0.0 W/m2 CLR
03:25 -19 °C -21.1 °C 34635.4 hPa Calm     76 % 0 mm 0.0 W/m2 CLR
03:32 -19 °C -20.9 °C 34625.2 hPa WSW 6 km/h 6 km/h 77 % 0 mm 0.0 W/m2 CLR
03:37 -19 °C -20.9 °C 34625.2 hPa SW 6 km/h 6 km/h 77 % 0 mm 0.0 W/m2 CLR
03:42 -19 °C -20.9 °C 34625.2 hPa Calm     77 % 0 mm 0.0 W/m2 CLR
03:47 -19 °C -20.9 °C 34625.2 hPa Calm     77 % 0 mm 0.0 W/m2 CLR
03:52 -19 °C -20.9 °C 34611.7 hPa WSW 6 km/h 6 km/h 78 % 0 mm 0.0 W/m2 CLR
03:57 -19.3 °C -21.1 °C 34611.7 hPa West 10.3 km/h 10.3 km/h 79 % 0 mm 0.0 W/m2 CLR
04:02 -19.3 °C -21.1 °C 34601.5 hPa West 6 km/h 6 km/h 79 % 0 mm 0.0 W/m2 CLR
04:07 -19.3 °C -21.2 °C 34601.5 hPa Calm     78 % 0 mm 0.0 W/m2 CLR
04:12 -19 °C -20.9 °C 34601.5 hPa West 6 km/h 6 km/h 78 % 0 mm 0.0 W/m2 CLR
04:22 -19.3 °C -21.3 °C 34601.5 hPa Calm     77 % 0 mm 0.0 W/m2 CLR
04:35 -19.6 °C -21.4 °C 34601.5 hPa Calm     78 % 0 mm 0.0 W/m2 CLR
04:40 -19.6 °C -21.3 °C 34601.5 hPa Calm     79 % 0 mm 0.0 W/m2 CLR
04:41 -19.6 °C -21.4 °C 34601.5 hPa Calm     78 % 0 mm 0.0 W/m2 CLR
04:46 -19.6 °C -21.4 °C 34601.5 hPa Calm     78 % 0 mm 0.0 W/m2 CLR
04:51 -19.6 °C -21.3 °C 34601.5 hPa Calm     79 % 0 mm 0.0 W/m2 CLR
04:56 -19.6 °C -21.3 °C 34601.5 hPa Calm     79 % 0 mm 0.0 W/m2 CLR
05:16 -19.6 °C -21.3 °C 34601.5 hPa Calm     80 % 0 mm 0.0 W/m2 CLR
05:31 -19.6 °C -21.2 °C 34591.4 hPa West 9 km/h 9 km/h 81 % 0 mm 0.0 W/m2 CLR
05:41 -19.6 °C -21.2 °C 34591.4 hPa WSW 10.3 km/h 10.3 km/h 81 % 0 mm 0.0 W/m2 CLR
05:46 -19.3 °C -20.9 °C 34591.4 hPa WSW 6 km/h 6 km/h 81 % 0 mm 0.0 W/m2 CLR
05:51 -19.3 °C -20.9 °C 34591.4 hPa Calm     80 % 0 mm 0.0 W/m2 CLR
05:56 -19.3 °C -20.9 °C 34591.4 hPa Calm     80 % 0 mm 0.0 W/m2 CLR
06:01 -19.3 °C -20.9 °C 34591.4 hPa Calm     81 % 0 mm 0.0 W/m2 CLR
06:06 -19.6 °C -21.2 °C 34591.4 hPa WSW 6 km/h 6 km/h 81 % 0 mm 0.0 W/m2 CLR
06:11 -19.6 °C -21.2 °C 34591.4 hPa Calm     81 % 0 mm 0.0 W/m2 CLR
06:21 -19.6 °C -21.3 °C 34591.4 hPa Calm     80 % 0 mm 0.0 W/m2 CLR
06:26 -19.9 °C -21.5 °C 34577.8 hPa West 10.3 km/h 10.3 km/h 81 % 0 mm 0.0 W/m2 CLR
06:31 -19.9 °C -21.4 °C 34577.8 hPa Calm     82 % 0 mm 0.0 W/m2 CLR
06:36 -19.9 °C -21.4 °C 34577.8 hPa Calm     82 % 0 mm 0.0 W/m2 CLR
06:41 -19.9 °C -21.5 °C 34577.8 hPa Calm     81 % 0 mm 0.0 W/m2 CLR
06:51 -19.9 °C -21.4 °C 34577.8 hPa West 9 km/h 9 km/h 82 % 0 mm 0.0 W/m2 CLR
06:56 -19.9 °C -21.4 °C 34577.8 hPa WSW 9 km/h 9 km/h 82 % 0 mm 0.0 W/m2 CLR
07:01 -19.9 °C -21.4 °C 34577.8 hPa WSW 6 km/h   82 % 0 mm 0.0 W/m2 CLR
07:06 -19.6 °C -21.1 °C 34577.8 hPa Calm     82 % 0 mm 0.0 W/m2 CLR
07:11 -19.6 °C -21.1 °C 34577.8 hPa Calm     82 % 0 mm 0.0 W/m2 CLR
07:16 -19.9 °C -21.4 °C 34577.8 hPa Calm     82 % 0 mm 0.0 W/m2 CLR
07:21 -19.6 °C -21 °C 34577.8 hPa Calm     83 % 0 mm 0.0 W/m2 CLR
07:26 -19.6 °C -20.9 °C 34577.8 hPa WSW 9 km/h 9 km/h 84 % 0 mm 0.0 W/m2 CLR
07:31 -19.9 °C -21.2 °C 34567.7 hPa WSW 6 km/h 6 km/h 84 % 0 mm 0.0 W/m2 CLR
07:41 -19.9 °C -21.3 °C 34567.7 hPa Calm     83 % 0 mm 0.0 W/m2 CLR
07:46 -19.9 °C -21.3 °C 34577.8 hPa WSW 6 km/h 6 km/h 83 % 0 mm 0.0 W/m2 OVC
07:51 -19.6 °C -20.9 °C 34577.8 hPa West 9 km/h 9 km/h 84 % 0 mm 0.0 W/m2 OVC
07:56 -19.6 °C -21 °C 34577.8 hPa WSW 6 km/h 6 km/h 83 % 0 mm 5.0 W/m2 OVC
08:11 -19.9 °C -21.2 °C 34577.8 hPa Calm     84 % 0 mm 12.0 W/m2 BKN
08:17 -19.9 °C -21.2 °C 34577.8 hPa Calm     84 % 0 mm 14.0 W/m2 BKN
08:26 -19.6 °C -20.9 °C 34577.8 hPa Calm     84 % 0 mm 23.0 W/m2 BKN
08:32 -19.6 °C -20.9 °C 34577.8 hPa Calm     84 % 0 mm 30.0 W/m2 BKN
08:37 -19.6 °C -21 °C 34577.8 hPa Calm     83 % 0 mm 37.0 W/m2 BKN
08:42 -19.6 °C -21 °C 34577.8 hPa Calm     83 % 0 mm 47.0 W/m2 SCT
08:47 -19.6 °C -21.1 °C 34577.8 hPa Calm     82 % 0 mm 53.0 W/m2 SCT
08:57 -19.6 °C -21.3 °C 34591.4 hPa Calm     80 % 0 mm 90.0 W/m2 FEW
09:02 -19.6 °C -21.3 °C 34577.8 hPa Calm     80 % 0 mm 83.0 W/m2 FEW
09:07 -19.3 °C -21.1 °C 34591.4 hPa Calm     79 % 0 mm 118.0 W/m2 CLR
09:17 -19 °C -21.1 °C 34591.4 hPa Calm     76 % 0 mm 121.0 W/m2 CLR
09:22 -18.7 °C -20.8 °C 34591.4 hPa Calm     75 % 0 mm 162.0 W/m2 CLR
09:27 -18.4 °C -20.6 °C 34591.4 hPa Calm     75 % 0 mm 179.0 W/m2 CLR
09:32 -18.4 °C -20.7 °C 34591.4 hPa Calm     74 % 0 mm 172.0 W/m2 CLR
09:37 -18.4 °C -20.7 °C 34591.4 hPa Calm     73 % 0 mm 179.0 W/m2 CLR
09:42 -18.1 °C -20.7 °C 34591.4 hPa Calm     71 % 0 mm 221.0 W/m2 CLR
09:47 -18.1 °C -20.7 °C 34591.4 hPa Calm     70 % 0 mm 221.0 W/m2 CLR
09:57 -17.8 °C -20.9 °C 34591.4 hPa Calm     66 % 0 mm 262.0 W/m2 CLR
10:02 -17.4 °C -20.7 °C 34591.4 hPa Calm     65 % 0 mm 274.0 W/m2 CLR
10:07 -17.2 °C -20.7 °C 34591.4 hPa Calm     63 % 0 mm 287.0 W/m2 CLR
10:12 -17.2 °C -20.9 °C 34577.8 hPa Calm     61 % 0 mm 297.0 W/m2 CLR
10:13 -16.8 °C -20.6 °C 34577.8 hPa Calm     61 % 0 mm 299.0 W/m2 CLR
10:28 -16.2 °C -20.5 °C 34577.8 hPa Calm     57 % 0 mm 330.0 W/m2 CLR
10:33 -15.9 °C -20.4 °C 34577.8 hPa Calm     55 % 0 mm 341.0 W/m2 CLR
10:38 -15.6 °C -20.3 °C 34577.8 hPa Calm     54 % 0 mm 350.0 W/m2 CLR
10:43 -15.3 °C -20.1 °C 34577.8 hPa Calm     54 % 0 mm 359.0 W/m2 CLR
10:48 -14.7 °C -19.5 °C 34577.8 hPa Calm     54 % 0 mm 367.0 W/m2 CLR
10:53 -14.4 °C -19.4 °C 34577.8 hPa Calm     52 % 0 mm 376.0 W/m2 CLR
10:58 -14.1 °C -19.3 °C 34577.8 hPa Calm     51 % 0 mm 387.0 W/m2 CLR
11:03 -13.8 °C -19.2 °C 34567.7 hPa Calm     50 % 0 mm 396.0 W/m2 CLR
11:08 -13.4 °C -19.1 °C 34567.7 hPa Calm     49 % 0 mm 403.0 W/m2 CLR
11:18 -13.2 °C -19.4 °C 34567.7 hPa Calm     45 % 0 mm 417.0 W/m2 CLR
11:23 -12.6 °C -18.8 °C 34567.7 hPa Calm     45 % 0 mm 422.0 W/m2 CLR
11:28 -12.2 °C -18.6 °C 34567.7 hPa Calm     45 % 0 mm 429.0 W/m2 CLR
11:38 -11.9 °C -18.6 °C 34567.7 hPa Calm     43 % 0 mm 443.0 W/m2 CLR
12:03 -11 °C -17.9 °C 34554.1 hPa Calm     42 % 0 mm 462.0 W/m2 CLR
12:08 -11 °C -17.9 °C 34544 hPa Calm     42 % 0 mm 464.0 W/m2 CLR
12:13 -10.7 °C -17.7 °C 34544 hPa East 9 km/h 9 km/h 42 % 0 mm 468.0 W/m2 CLR
12:18 -10.7 °C -17.9 °C 34533.8 hPa East 9 km/h 9 km/h 41 % 0 mm 469.0 W/m2 CLR
12:23 -10.7 °C -17.9 °C 34533.8 hPa East 3.1 km/h   41 % 0 mm 471.0 W/m2 CLR
12:28 -10.4 °C -17.4 °C 34533.8 hPa East 10.3 km/h 10.3 km/h 42 % 0 mm 473.0 W/m2 CLR
12:33 -10.4 °C -17.4 °C 34533.8 hPa East 9 km/h 9 km/h 42 % 0 mm 475.0 W/m2 CLR
12:38 -10.4 °C -17.4 °C 34520.3 hPa ENE 9 km/h 9 km/h 42 % 0 mm 475.0 W/m2 CLR
12:43 -10.4 °C -17.4 °C 34520.3 hPa ENE 9 km/h 9 km/h 42 % 0 mm 476.0 W/m2 CLR
12:48 -10.4 °C -17.6 °C 34520.3 hPa ENE 7.7 km/h 7.7 km/h 41 % 0 mm 476.0 W/m2 CLR
12:59 -10.1 °C -17.3 °C 34520.3 hPa East 7.7 km/h 7.7 km/h 41 % 0 mm 475.0 W/m2 CLR
13:04 -10.1 °C -17.3 °C 34520.3 hPa East 6 km/h 6 km/h 41 % 0 mm 473.0 W/m2 CLR
13:09 -10.1 °C -17.3 °C 34510.1 hPa East 9 km/h 9 km/h 41 % 0 mm 471.0 W/m2 CLR
13:14 -10.1 °C -17.5 °C 34510.1 hPa ENE 9 km/h 9 km/h 40 % 0 mm 469.0 W/m2 CLR
13:19 -10.1 °C -17.5 °C 34510.1 hPa East 9 km/h 9 km/h 40 % 0 mm 468.0 W/m2 CLR
13:24 -9.8 °C -17.2 °C 34510.1 hPa ENE 6 km/h 6 km/h 40 % 0 mm 468.0 W/m2 CLR
13:34 -9.8 °C -17.6 °C 34496.6 hPa East 9 km/h 9 km/h 38 % 0 mm 462.0 W/m2 CLR
13:44 -9.4 °C -17.6 °C 34496.6 hPa East 9 km/h 9 km/h 37 % 0 mm 455.0 W/m2 CLR
13:49 -9.1 °C -17.3 °C 34496.6 hPa ENE 9 km/h 9 km/h 37 % 0 mm 450.0 W/m2 CLR
13:54 -9.1 °C -17.5 °C 34486.4 hPa ENE 6 km/h 6 km/h 36 % 0 mm 446.0 W/m2 CLR
13:59 -9.1 °C -17.7 °C 34486.4 hPa ENE 9 km/h 9 km/h 35 % 0 mm 441.0 W/m2 CLR
14:04 -9.1 °C -17.7 °C 34486.4 hPa ENE 9 km/h 9 km/h 35 % 0 mm 434.0 W/m2 CLR
14:14 -9.1 °C -17.7 °C 34486.4 hPa ENE 9 km/h 9 km/h 35 % 0 mm 422.0 W/m2 CLR
14:29 -8.8 °C -17.7 °C 34486.4 hPa NNE 9 km/h 9 km/h 34 % 0 mm 401.0 W/m2 CLR
14:34 -8.8 °C -17.7 °C 34486.4 hPa NE 9 km/h 9 km/h 34 % 0 mm 392.0 W/m2 CLR
14:39 -8.8 °C -17.9 °C 34486.4 hPa NE 9 km/h 9 km/h 33 % 0 mm 385.0 W/m2 CLR
14:49 -8.8 °C -17.9 °C 34476.3 hPa East 9 km/h 9 km/h 33 % 0 mm 366.0 W/m2 CLR
14:54 -8.8 °C -17.9 °C 34476.3 hPa East 9 km/h 9 km/h 33 % 0 mm 359.0 W/m2 CLR
14:55 -8.8 °C -17.9 °C 34476.3 hPa ENE 12.9 km/h 12.9 km/h 33 % 0 mm 355.0 W/m2 CLR
15:00 -8.8 °C -17.7 °C 34476.3 hPa East 9 km/h 9 km/h 34 % 0 mm 346.0 W/m2 CLR
15:05 -8.8 °C -17.7 °C 34476.3 hPa ENE 9 km/h 9 km/h 34 % 0 mm 336.0 W/m2 CLR
15:10 -8.8 °C -17.4 °C 34476.3 hPa ENE 9 km/h   35 % 0 mm 327.0 W/m2 CLR
15:15 -8.8 °C -17.2 °C 34476.3 hPa Calm     36 % 0 mm 315.0 W/m2 CLR
15:20 -8.8 °C -17.2 °C 34476.3 hPa ENE 3.1 km/h 3.1 km/h 36 % 0 mm 302.0 W/m2 CLR
15:30 -8.8 °C -17 °C 34476.3 hPa Calm   1 km/h 37 % 0 mm 281.0 W/m2 CLR
15:35 -8.8 °C -17.2 °C 34476.3 hPa ENE 9 km/h 9 km/h 36 % 0 mm 267.0 W/m2 CLR
15:41 -8.8 °C -17 °C 34476.3 hPa Calm     37 % 0 mm 251.0 W/m2 CLR
15:46 -8.8 °C -17 °C 34476.3 hPa Calm     37 % 0 mm 236.0 W/m2 CLR
15:56 -9.1 °C -17.3 °C 34476.3 hPa Calm     37 % 0 mm 207.0 W/m2 CLR
16:01 -9.1 °C -17.3 °C 34476.3 hPa ENE 6 km/h 6 km/h 37 % 0 mm 193.0 W/m2 CLR
16:06 -9.1 °C -17.3 °C 34476.3 hPa Calm     37 % 0 mm 174.0 W/m2 CLR
16:11 -9.4 °C -17.3 °C 34476.3 hPa Calm     38 % 0 mm 160.0 W/m2 CLR
16:16 -9.4 °C -17.3 °C 34476.3 hPa Calm     38 % 0 mm 146.0 W/m2 CLR
16:21 -9.4 °C -17.3 °C 34476.3 hPa Calm     38 % 0 mm 130.0 W/m2 CLR
16:27 -9.4 °C -17.6 °C 34476.3 hPa Calm     37 % 0 mm 114.0 W/m2 CLR
16:37 -10.1 °C -17.9 °C 34476.3 hPa Calm     38 % 0 mm 86.0 W/m2 CLR
16:42 -10.4 °C -18.2 °C 34476.3 hPa Calm     38 % 0 mm 72.0 W/m2 FEW
16:52 -11.3 °C -19 °C 34476.3 hPa Calm     38 % 0 mm 49.0 W/m2 SCT
16:57 -11.6 °C -19.5 °C 34476.3 hPa Calm     37 % 0 mm 40.0 W/m2 BKN
17:02 -11.9 °C -19.8 °C 34476.3 hPa Calm     37 % 0 mm 33.0 W/m2 BKN
17:12 -12.6 °C -20.1 °C 34476.3 hPa Calm     38 % 0 mm 18.0 W/m2 BKN
17:17 -12.8 °C -20.4 °C 34476.3 hPa Calm     38 % 0 mm 14.0 W/m2 BKN
17:22 -12.8 °C -20.4 °C 34476.3 hPa Calm     38 % 0 mm 12.0 W/m2 BKN
17:27 -12.8 °C -20.2 °C 34476.3 hPa Calm     39 % 0 mm 9.0 W/m2 BKN
17:37 -12.8 °C -19.8 °C 34476.3 hPa Calm     41 % 0 mm 0.0 W/m2 OVC
17:42 -13.2 °C -20.1 °C 34476.3 hPa Calm     41 % 0 mm 0.0 W/m2 OVC
17:47 -13.2 °C -19.9 °C 34476.3 hPa Calm     42 % 0 mm 0.0 W/m2 CLR
17:52 -12.8 °C -19.5 °C 34462.7 hPa Calm     43 % 0 mm 0.0 W/m2 CLR
17:57 -12.8 °C -19.3 °C 34462.7 hPa Calm     44 % 0 mm 0.0 W/m2 CLR
18:07 -13.2 °C -19.2 °C 34462.7 hPa Calm     46 % 0 mm 0.0 W/m2 CLR
18:12 -13.4 °C -19.3 °C 34462.7 hPa Calm     47 % 0 mm 0.0 W/m2 CLR
18:17 -13.8 °C -19.5 °C 34462.7 hPa Calm     48 % 0 mm 0.0 W/m2 CLR
18:22 -14.1 °C -19.5 °C 34462.7 hPa Calm     50 % 0 mm 0.0 W/m2 CLR
18:32 -14.1 °C -19.2 °C 34462.7 hPa Calm     52 % 0 mm 0.0 W/m2 CLR
18:37 -14.4 °C -19.3 °C 34462.7 hPa Calm     53 % 0 mm 0.0 W/m2 CLR
18:52 -15 °C -19.8 °C 34462.7 hPa Calm     54 % 0 mm 0.0 W/m2 CLR
18:57 -15 °C -19.5 °C 34462.7 hPa Calm     56 % 0 mm 0.0 W/m2 CLR
19:02 -15 °C -19.5 °C 34462.7 hPa Calm     56 % 0 mm 0.0 W/m2 CLR
19:07 -15 °C -19.3 °C 34462.7 hPa Calm     57 % 0 mm 0.0 W/m2 CLR
19:17 -15.3 °C -19.6 °C 34462.7 hPa Calm     57 % 0 mm 0.0 W/m2 CLR
19:27 -15.3 °C -19.3 °C 34462.7 hPa Calm     60 % 0 mm 0.0 W/m2 CLR
19:32 -15.3 °C -19.3 °C 34462.7 hPa Calm     60 % 0 mm 0.0 W/m2 CLR
19:33 -15.3 °C -19.3 °C 34462.7 hPa Calm     60 % 0 mm 0.0 W/m2 CLR
19:38 -15.6 °C -19.6 °C 34462.7 hPa Calm     60 % 0 mm 0.0 W/m2 CLR
19:43 -15.6 °C -19.4 °C 34462.7 hPa Calm     61 % 0 mm 0.0 W/m2 CLR
19:48 -15.9 °C -19.7 °C 34462.7 hPa Calm     61 % 0 mm 0.0 W/m2 CLR
19:58 -15.9 °C -19.6 °C 34462.7 hPa Calm     62 % 0 mm 0.0 W/m2 CLR
20:03 -16.2 °C -19.9 °C 34462.7 hPa Calm     62 % 0 mm 0.0 W/m2 CLR
20:15 -16.2 °C -19.8 °C 34462.7 hPa Calm     63 % 0 mm 0.0 W/m2 CLR
20:20 -16.2 °C -19.6 °C 34462.7 hPa Calm     65 % 0 mm 0.0 W/m2 CLR
20:40 -15.9 °C -19.1 °C 34476.3 hPa Calm     66 % 0 mm 0.0 W/m2 CLR
20:45 -16.2 °C -19.3 °C 34476.3 hPa Calm     67 % 0 mm 0.0 W/m2 CLR
20:50 -16.2 °C -19.3 °C 34476.3 hPa Calm     67 % 0 mm 0.0 W/m2 CLR
20:55 -16.6 °C -19.5 °C 34476.3 hPa Calm     68 % 0 mm 0.0 W/m2 CLR
21:05 -16.8 °C -19.8 °C 34476.3 hPa Calm     68 % 0 mm 0.0 W/m2 CLR
21:10 -16.8 °C -19.8 °C 34476.3 hPa Calm     68 % 0 mm 0.0 W/m2 CLR
21:20 -17.2 °C -19.9 °C 34486.4 hPa Calm     69 % 0 mm 0.0 W/m2 CLR
21:25 -17.2 °C -20.3 °C 34486.4 hPa Calm     66 % 0 mm 0.0 W/m2 CLR
21:30 -17.2 °C -20.2 °C 34486.4 hPa Calm     67 % 0 mm 0.0 W/m2 CLR
21:35 -17.2 °C -19.9 °C 34486.4 hPa Calm     69 % 0 mm 0.0 W/m2 CLR
21:40 -17.2 °C -19.9 °C 34486.4 hPa Calm     69 % 0 mm 0.0 W/m2 CLR
21:45 -17.2 °C -19.9 °C 34486.4 hPa Calm     69 % 0 mm 0.0 W/m2 CLR
21:50 -17.2 °C -19.8 °C 34486.4 hPa Calm     71 % 0 mm 0.0 W/m2 CLR
21:55 -17.2 °C -19.8 °C 34486.4 hPa Calm     71 % 0 mm 0.0 W/m2 CLR
22:00 -17.2 °C -19.6 °C 34496.6 hPa Calm     73 % 0 mm 0.0 W/m2 CLR
22:05 -17.2 °C -19.6 °C 34486.4 hPa Calm     73 % 0 mm 0.0 W/m2 CLR
22:10 -17.4 °C -19.8 °C 34496.6 hPa Calm     74 % 0 mm 0.0 W/m2 CLR
22:15 -17.4 °C -19.7 °C 34496.6 hPa Calm     75 % 0 mm 0.0 W/m2 CLR
22:20 -17.8 °C -20.1 °C 34496.6 hPa Calm     74 % 0 mm 0.0 W/m2 CLR
22:25 -17.8 °C -20.2 °C 34496.6 hPa Calm     73 % 0 mm 0.0 W/m2 CLR
22:30 -18.1 °C -20.4 °C 34496.6 hPa Calm     73 % 0 mm 0.0 W/m2 CLR
22:35 -17.8 °C -20.2 °C 34510.1 hPa Calm     72 % 0 mm 0.0 W/m2 CLR
22:40 -17.8 °C -20.2 °C 34510.1 hPa Calm     72 % 0 mm 0.0 W/m2 CLR
22:45 -17.4 °C -19.8 °C 34510.1 hPa Calm     74 % 0 mm 0.0 W/m2 CLR
22:55 -17.4 °C -19.7 °C 34496.6 hPa Calm     75 % 0 mm 0.0 W/m2 CLR
23:00 -17.4 °C -19.7 °C 34510.1 hPa Calm     75 % 0 mm 0.0 W/m2 CLR
23:05 -17.8 °C -20.1 °C 34510.1 hPa Calm     74 % 0 mm 0.0 W/m2 CLR
23:10 -17.8 °C -20.2 °C 34496.6 hPa Calm     73 % 0 mm 0.0 W/m2 CLR
23:15 -17.8 °C -20.2 °C 34496.6 hPa Calm     73 % 0 mm 0.0 W/m2 CLR
23:20 -18.1 °C -20.3 °C 34496.6 hPa Calm     74 % 0 mm 0.0 W/m2 CLR
23:25 -18.1 °C -20.3 °C 34496.6 hPa Calm     74 % 0 mm 0.0 W/m2 CLR
23:30 -18.1 °C -20.3 °C 34510.1 hPa Calm     74 % 0 mm 0.0 W/m2 CLR
23:35 -18.1 °C -20.4 °C 34510.1 hPa Calm     73 % 0 mm 0.0 W/m2 CLR
23:45 -18.4 °C -20.7 °C 34510.1 hPa Calm     73 % 0 mm 0.0 W/m2 CLR
23:50 -18.4 °C -20.7 °C 34510.1 hPa Calm     74 % 0 mm 0.0 W/m2 CLR
23:51 -18.4 °C -20.7 °C 34510.1 hPa Calm     74 % 0 mm 0.0 W/m2 CLR
23:56 -18.4 °C -20.7 °C 34510.1 hPa Calm     74 % 0 mm 0.0 W/m2 CLR
Lo Temps de Massalio
Compliments of Weather Underground - 1 mb